Time;durP1;ratioP1;P1;durP2;ratioP2;P2;SDS_P1;SDS_P2;PMS_P1;PMS_P2;Temp;Humidity;BMP_temperature;BMP_pressure;BME280_temperature;BME280_humidity;BME280_pressure;Samples;Min_cycle;Max_cycle;Signal;HPM_P1;HPM_P2
2024/01/25 00:00:13;;;;;;;1.40;1.30;;;;;;;;;;2076152;28;20481;-75
2024/01/25 00:01:32;;;;;;;1.45;1.35;;;;;;;;;;2075951;28;20025;-75
2024/01/25 00:02:51;;;;;;;1.02;1.02;;;;;;;;;;2076079;28;20493;-76
2024/01/25 00:04:10;;;;;;;2.08;1.40;;;;;;;;;;2075972;28;20485;-76
2024/01/25 00:05:29;;;;;;;1.05;1.05;;;;;;;;;;2075491;28;20021;-76
2024/01/25 00:06:48;;;;;;;1.02;1.02;;;;;;;;;;2067907;28;20471;-76
2024/01/25 00:08:07;;;;;;;1.08;1.08;;;;;;;;;;2072929;28;20084;-76
2024/01/25 00:09:26;;;;;;;1.20;1.10;;;;;;;;;;2066837;28;20496;-76
2024/01/25 00:10:45;;;;;;;1.33;1.10;;;;;;;;;;2065035;28;20061;-76
2024/01/25 00:12:05;;;;;;;0.93;0.93;;;;;;;;;;2072670;28;20022;-75
2024/01/25 00:13:24;;;;;;;1.08;1.08;;;;;;;;;;2075889;28;20392;-76
2024/01/25 00:14:43;;;;;;;1.60;0.80;;;;;;;;;;2076138;28;20414;-77
2024/01/25 00:16:01;;;;;;;0.73;0.60;;;;;;;;;;2076492;28;20025;-76
2024/01/25 00:17:20;;;;;;;0.80;0.80;;;;;;;;;;2078005;28;20034;-75
2024/01/25 00:18:39;;;;;;;1.13;0.90;;;;;;;;;;2076327;28;20050;-76
2024/01/25 00:19:58;;;;;;;0.70;0.70;;;;;;;;;;2074420;28;20026;-76
2024/01/25 00:21:17;;;;;;;0.90;0.90;;;;;;;;;;2067168;28;20342;-74
2024/01/25 00:22:37;;;;;;;0.95;0.93;;;;;;;;;;2073266;28;20481;-76
2024/01/25 00:23:57;;;;;;;1.95;0.70;;;;;;;;;;2077189;28;20057;-76
2024/01/25 00:25:16;;;;;;;0.70;0.70;;;;;;;;;;2077369;28;20021;-75
2024/01/25 00:26:35;;;;;;;0.70;0.70;;;;;;;;;;2077143;28;20021;-75
2024/01/25 00:27:54;;;;;;;1.02;0.90;;;;;;;;;;2077278;28;20459;-76
2024/01/25 00:29:15;;;;;;;1.10;1.10;;;;;;;;;;2067159;28;20121;-76
2024/01/25 00:30:34;;;;;;;0.98;0.88;;;;;;;;;;2064456;28;20038;-75
2024/01/25 00:31:53;;;;;;;1.65;1.02;;;;;;;;;;2073545;28;20104;-75
2024/01/25 00:33:12;;;;;;;0.93;0.93;;;;;;;;;;2076595;28;20030;-75
2024/01/25 00:34:31;;;;;;;0.80;0.80;;;;;;;;;;2076733;28;20511;-76
2024/01/25 00:35:50;;;;;;;0.77;0.77;;;;;;;;;;2066227;28;20057;-77
2024/01/25 00:37:10;;;;;;;1.30;1.20;;;;;;;;;;2063450;28;20084;-77
2024/01/25 00:38:29;;;;;;;2.25;1.08;;;;;;;;;;2070282;28;20022;-77
2024/01/25 00:39:49;;;;;;;1.15;0.88;;;;;;;;;;2077399;28;20404;-76
2024/01/25 00:41:08;;;;;;;0.80;0.80;;;;;;;;;;2067462;28;20488;-76
2024/01/25 00:42:28;;;;;;;1.73;0.93;;;;;;;;;;2066315;28;20042;-76
2024/01/25 00:43:47;;;;;;;0.90;0.90;;;;;;;;;;2068836;28;20120;-76
2024/01/25 00:45:07;;;;;;;1.10;1.10;;;;;;;;;;2074161;28;20065;-76
2024/01/25 00:46:27;;;;;;;0.52;0.52;;;;;;;;;;2065853;28;20535;-76
2024/01/25 00:47:46;;;;;;;1.17;1.08;;;;;;;;;;2072317;28;20037;-76
2024/01/25 00:49:05;;;;;;;0.95;0.90;;;;;;;;;;2075992;28;20034;-76
2024/01/25 00:50:25;;;;;;;1.20;1.08;;;;;;;;;;2076109;28;20030;-76
2024/01/25 00:51:46;;;;;;;0.80;0.80;;;;;;;;;;2076078;28;20389;-76
2024/01/25 00:53:06;;;;;;;1.45;1.17;;;;;;;;;;2076363;28;20109;-76
2024/01/25 00:54:25;;;;;;;0.80;0.80;;;;;;;;;;2073855;28;20153;-76
2024/01/25 00:55:43;;;;;;;1.48;1.13;;;;;;;;;;2076260;28;20030;-75
2024/01/25 00:57:03;;;;;;;1.10;1.10;;;;;;;;;;2075158;28;20038;-76
2024/01/25 00:58:21;;;;;;;0.90;0.90;;;;;;;;;;2073856;28;20112;-76
2024/01/25 00:59:40;;;;;;;1.92;1.10;;;;;;;;;;2075629;28;20045;-75
2024/01/25 01:01:00;;;;;;;1.17;1.00;;;;;;;;;;2068416;28;20022;-76
2024/01/25 01:02:20;;;;;;;0.80;0.80;;;;;;;;;;2068001;28;20033;-76
2024/01/25 01:03:40;;;;;;;1.20;1.20;;;;;;;;;;2072224;28;20395;-75
2024/01/25 01:04:59;;;;;;;1.15;0.90;;;;;;;;;;2075687;28;20499;-74
2024/01/25 01:06:21;;;;;;;0.98;0.98;;;;;;;;;;2076387;28;20053;-75
2024/01/25 01:07:42;;;;;;;0.63;0.63;;;;;;;;;;2076515;28;20121;-76
2024/01/25 01:09:01;;;;;;;1.05;1.05;;;;;;;;;;2067154;28;20034;-75
2024/01/25 01:10:21;;;;;;;1.85;1.05;;;;;;;;;;2070598;28;20030;-76
2024/01/25 01:11:40;;;;;;;1.98;0.90;;;;;;;;;;2075582;28;20037;-76
2024/01/25 01:12:59;;;;;;;1.60;0.90;;;;;;;;;;2075341;28;20041;-74
2024/01/25 01:14:18;;;;;;;1.42;1.10;;;;;;;;;;2068039;28;20377;-76
2024/01/25 01:15:37;;;;;;;1.30;1.20;;;;;;;;;;2072851;28;20492;-75
2024/01/25 01:16:57;;;;;;;2.28;1.30;;;;;;;;;;2066617;28;20121;-75
2024/01/25 01:18:15;;;;;;;2.45;1.40;;;;;;;;;;2068373;28;20030;-76
2024/01/25 01:19:34;;;;;;;1.42;1.30;;;;;;;;;;2073472;28;20022;-76
2024/01/25 01:20:53;;;;;;;2.28;1.50;;;;;;;;;;2075654;28;20504;-76
2024/01/25 01:22:12;;;;;;;1.40;1.30;;;;;;;;;;2067913;28;20060;-75
2024/01/25 01:23:31;;;;;;;2.20;1.35;;;;;;;;;;2072272;28;20038;-75
2024/01/25 01:24:50;;;;;;;1.20;1.13;;;;;;;;;;2073529;28;20037;-76
2024/01/25 01:26:09;;;;;;;1.90;1.70;;;;;;;;;;2074083;28;20463;-76
2024/01/25 01:27:28;;;;;;;1.40;1.30;;;;;;;;;;2074977;28;20112;-75
2024/01/25 01:28:47;;;;;;;3.03;1.55;;;;;;;;;;2075949;28;20057;-75
2024/01/25 01:30:08;;;;;;;1.70;1.60;;;;;;;;;;2075844;28;20037;-75
2024/01/25 01:31:27;;;;;;;1.88;1.77;;;;;;;;;;2075578;28;20034;-76
2024/01/25 01:32:46;;;;;;;2.35;1.70;;;;;;;;;;2066366;28;20049;-75
2024/01/25 01:34:05;;;;;;;1.80;1.70;;;;;;;;;;2071788;28;20034;-75
2024/01/25 01:35:24;;;;;;;1.98;1.80;;;;;;;;;;2071696;28;20022;-78
2024/01/25 01:36:44;;;;;;;1.75;1.65;;;;;;;;;;2075721;28;20021;-76
2024/01/25 01:38:03;;;;;;;1.73;1.63;;;;;;;;;;2076058;28;20033;-75
2024/01/25 01:39:22;;;;;;;2.00;1.50;;;;;;;;;;2076747;28;20501;-75
2024/01/25 01:40:41;;;;;;;2.67;2.00;;;;;;;;;;2077194;28;20037;-74
2024/01/25 01:42:00;;;;;;;1.20;1.20;;;;;;;;;;2074251;28;20496;-77
2024/01/25 01:43:19;;;;;;;1.67;1.58;;;;;;;;;;2074571;28;20037;-75
2024/01/25 01:44:39;;;;;;;1.65;1.55;;;;;;;;;;2075666;28;20033;-75
2024/01/25 01:46:01;;;;;;;1.70;1.60;;;;;;;;;;2074169;28;20038;-76
2024/01/25 01:47:20;;;;;;;1.70;1.60;;;;;;;;;;2075181;28;20484;-75
2024/01/25 01:48:39;;;;;;;1.90;1.80;;;;;;;;;;2074725;28;20038;-77
2024/01/25 01:49:58;;;;;;;2.47;1.75;;;;;;;;;;2075621;28;20029;-75
2024/01/25 01:51:17;;;;;;;2.00;1.77;;;;;;;;;;2075562;28;20675;-76
2024/01/25 01:52:37;;;;;;;2.90;1.98;;;;;;;;;;2074282;28;20041;-76
2024/01/25 01:53:56;;;;;;;1.70;1.60;;;;;;;;;;2075945;28;20057;-76
2024/01/25 01:55:18;;;;;;;1.65;1.55;;;;;;;;;;2067291;28;20485;-74
2024/01/25 01:56:39;;;;;;;3.55;2.05;;;;;;;;;;2072986;28;20037;-75
2024/01/25 01:57:59;;;;;;;1.70;1.60;;;;;;;;;;2066348;28;20038;-74
2024/01/25 01:59:18;;;;;;;2.58;1.70;;;;;;;;;;2064015;28;20034;-75
2024/01/25 02:00:39;;;;;;;1.88;1.77;;;;;;;;;;2062089;28;20035;-75
2024/01/25 02:01:58;;;;;;;2.65;1.75;;;;;;;;;;2072749;28;20392;-76
2024/01/25 02:03:17;;;;;;;2.30;2.10;;;;;;;;;;2075764;28;20033;-75
2024/01/25 02:04:36;;;;;;;2.88;2.47;;;;;;;;;;2077363;28;20038;-76
2024/01/25 02:05:55;;;;;;;2.50;2.30;;;;;;;;;;2067018;28;20062;-74
2024/01/25 02:07:14;;;;;;;3.22;2.17;;;;;;;;;;2072165;28;20041;-75
2024/01/25 02:08:34;;;;;;;3.17;2.28;;;;;;;;;;2075175;28;20113;-75
2024/01/25 02:09:54;;;;;;;1.80;1.58;;;;;;;;;;2075645;28;20080;-75
2024/01/25 02:11:13;;;;;;;2.75;1.95;;;;;;;;;;2072101;28;20062;-75
2024/01/25 02:12:32;;;;;;;4.53;2.30;;;;;;;;;;2075460;28;20061;-77
2024/01/25 02:13:51;;;;;;;2.60;2.38;;;;;;;;;;2071384;28;20033;-75
2024/01/25 02:15:10;;;;;;;2.35;2.20;;;;;;;;;;2064672;28;20034;-74
2024/01/25 02:16:28;;;;;;;2.38;2.08;;;;;;;;;;2071498;28;20117;-76
2024/01/25 02:17:48;;;;;;;2.42;2.33;;;;;;;;;;2075546;28;20038;-79
2024/01/25 02:19:06;;;;;;;2.92;2.10;;;;;;;;;;2076634;28;20112;-80
2024/01/25 02:20:26;;;;;;;4.65;2.20;;;;;;;;;;2077016;28;20022;-79
2024/01/25 02:21:45;;;;;;;2.50;1.75;;;;;;;;;;2076703;28;20037;-79
2024/01/25 02:23:04;;;;;;;2.10;1.92;;;;;;;;;;2077798;28;20037;-81
2024/01/25 02:24:23;;;;;;;9.88;1.92;;;;;;;;;;2069510;28;20030;-78
2024/01/25 02:25:42;;;;;;;1.60;1.50;;;;;;;;;;2067346;28;20030;-79
2024/01/25 02:27:01;;;;;;;1.65;1.55;;;;;;;;;;2072117;28;20029;-79
2024/01/25 02:28:20;;;;;;;3.00;1.90;;;;;;;;;;2067269;28;20029;-79
2024/01/25 02:29:39;;;;;;;2.95;1.67;;;;;;;;;;2073771;28;20053;-79
2024/01/25 02:30:58;;;;;;;1.67;1.58;;;;;;;;;;2075620;28;20491;-77
2024/01/25 02:32:17;;;;;;;1.73;1.50;;;;;;;;;;2075676;28;20080;-78
2024/01/25 02:33:36;;;;;;;2.78;1.40;;;;;;;;;;2068522;28;20093;-79
2024/01/25 02:34:55;;;;;;;2.55;1.38;;;;;;;;;;2064862;28;20467;-78
2024/01/25 02:36:14;;;;;;;3.97;1.10;;;;;;;;;;2073792;28;20073;-78
2024/01/25 02:37:33;;;;;;;1.73;1.40;;;;;;;;;;2076461;28;20021;-79
2024/01/25 02:38:52;;;;;;;2.15;1.23;;;;;;;;;;2077378;28;20499;-77
2024/01/25 02:40:11;;;;;;;3.35;1.55;;;;;;;;;;2078071;28;20037;-79
2024/01/25 02:41:30;;;;;;;2.08;1.60;;;;;;;;;;2076709;28;20117;-79
2024/01/25 02:42:50;;;;;;;2.38;1.50;;;;;;;;;;2074742;28;20037;-80
2024/01/25 02:44:09;;;;;;;2.05;1.30;;;;;;;;;;2077299;28;20034;-79
2024/01/25 02:45:28;;;;;;;1.33;1.10;;;;;;;;;;2076095;28;20033;-80
2024/01/25 02:46:47;;;;;;;1.75;1.20;;;;;;;;;;2075913;28;20061;-79
2024/01/25 02:48:06;;;;;;;1.67;1.13;;;;;;;;;;2076336;28;20037;-81
2024/01/25 02:49:25;;;;;;;1.55;1.15;;;;;;;;;;2076733;28;20116;-79
2024/01/25 02:50:44;;;;;;;2.70;1.17;;;;;;;;;;2068239;28;20567;-80
2024/01/25 02:52:03;;;;;;;2.35;1.40;;;;;;;;;;2072715;28;20038;-79
2024/01/25 02:53:22;;;;;;;3.83;1.40;;;;;;;;;;2077227;28;20625;-78
2024/01/25 02:54:41;;;;;;;1.50;1.35;;;;;;;;;;2077578;28;20512;-78
2024/01/25 02:56:00;;;;;;;4.10;1.67;;;;;;;;;;2077680;28;20045;-79
2024/01/25 02:57:19;;;;;;;1.63;1.50;;;;;;;;;;2076577;28;20033;-79
2024/01/25 02:58:37;;;;;;;1.40;1.30;;;;;;;;;;2074503;28;20034;-78
2024/01/25 02:59:56;;;;;;;2.22;1.60;;;;;;;;;;2075573;28;20578;-80
2024/01/25 03:01:16;;;;;;;2.47;1.33;;;;;;;;;;2077104;28;20487;-79
2024/01/25 03:02:35;;;;;;;2.03;1.30;;;;;;;;;;2076895;28;20038;-79
2024/01/25 03:03:54;;;;;;;1.25;0.90;;;;;;;;;;2068960;28;20047;-81
2024/01/25 03:05:12;;;;;;;1.13;1.00;;;;;;;;;;2072870;28;20025;-78
2024/01/25 03:06:32;;;;;;;2.45;0.82;;;;;;;;;;2076519;28;20484;-80
2024/01/25 03:07:51;;;;;;;0.77;0.77;;;;;;;;;;2076843;28;20625;-79
2024/01/25 03:09:10;;;;;;;3.50;0.77;;;;;;;;;;2075728;28;20391;-79
2024/01/25 03:10:29;;;;;;;1.42;1.00;;;;;;;;;;2077223;28;20472;-79
2024/01/25 03:11:48;;;;;;;2.22;1.05;;;;;;;;;;2073361;28;20030;-80
2024/01/25 03:13:07;;;;;;;1.35;0.80;;;;;;;;;;2067305;28;20042;-79
2024/01/25 03:14:25;;;;;;;1.80;0.93;;;;;;;;;;2066436;28;20026;-79
2024/01/25 03:15:44;;;;;;;2.92;1.00;;;;;;;;;;2069976;28;20133;-79
2024/01/25 03:17:03;;;;;;;1.27;1.15;;;;;;;;;;2077716;28;20042;-79
2024/01/25 03:18:22;;;;;;;0.95;0.95;;;;;;;;;;2076991;28;20140;-78
2024/01/25 03:19:41;;;;;;;0.60;0.50;;;;;;;;;;2077220;28;20504;-79
2024/01/25 03:21:00;;;;;;;3.60;0.77;;;;;;;;;;2076231;28;20635;-79
2024/01/25 03:22:19;;;;;;;1.73;0.60;;;;;;;;;;2067113;28;20046;-80
2024/01/25 03:23:38;;;;;;;0.98;0.98;;;;;;;;;;2071853;28;20097;-78
2024/01/25 03:24:57;;;;;;;1.63;0.70;;;;;;;;;;2077856;28;20404;-79
2024/01/25 03:26:15;;;;;;;2.08;0.90;;;;;;;;;;2068680;28;20492;-79
2024/01/25 03:27:34;;;;;;;0.95;0.80;;;;;;;;;;2072320;28;20037;-79
2024/01/25 03:28:54;;;;;;;1.02;0.70;;;;;;;;;;2075577;28;20400;-75
2024/01/25 03:30:13;;;;;;;0.70;0.70;;;;;;;;;;2074592;28;20029;-74
2024/01/25 03:31:32;;;;;;;0.70;0.70;;;;;;;;;;2076531;28;20030;-75
2024/01/25 03:32:51;;;;;;;2.47;0.80;;;;;;;;;;2067838;28;20026;-76
2024/01/25 03:34:10;;;;;;;2.90;0.65;;;;;;;;;;2063825;28;20039;-76
2024/01/25 03:35:29;;;;;;;0.90;0.70;;;;;;;;;;2069924;28;20026;-75
2024/01/25 03:36:50;;;;;;;2.25;0.88;;;;;;;;;;2067854;28;20038;-75
2024/01/25 03:38:09;;;;;;;2.42;1.00;;;;;;;;;;2073673;28;20065;-75
2024/01/25 03:39:28;;;;;;;4.25;0.80;;;;;;;;;;2077864;28;20037;-75
2024/01/25 03:40:47;;;;;;;1.58;0.50;;;;;;;;;;2068066;28;20029;-74
2024/01/25 03:42:06;;;;;;;0.77;0.70;;;;;;;;;;2063622;28;20042;-76
2024/01/25 03:43:25;;;;;;;2.15;1.08;;;;;;;;;;2074123;28;20030;-75
2024/01/25 03:44:45;;;;;;;1.15;0.77;;;;;;;;;;2067301;28;20026;-75
2024/01/25 03:46:04;;;;;;;1.48;0.73;;;;;;;;;;2070838;28;20029;-76
2024/01/25 03:47:23;;;;;;;1.20;0.65;;;;;;;;;;2075802;28;20041;-76
2024/01/25 03:48:44;;;;;;;2.08;0.88;;;;;;;;;;2076275;28;20042;-76
2024/01/25 03:50:04;;;;;;;0.70;0.70;;;;;;;;;;2074708;28;20034;-76
2024/01/25 03:51:24;;;;;;;0.82;0.70;;;;;;;;;;2076795;28;20029;-76
2024/01/25 03:52:44;;;;;;;2.55;0.93;;;;;;;;;;2076285;28;20033;-75
2024/01/25 03:54:03;;;;;;;2.22;0.80;;;;;;;;;;2067652;28;20026;-74
2024/01/25 03:55:23;;;;;;;1.95;0.70;;;;;;;;;;2073487;28;20029;-75
2024/01/25 03:56:42;;;;;;;1.75;0.70;;;;;;;;;;2075236;28;20069;-75
2024/01/25 03:58:01;;;;;;;2.20;0.60;;;;;;;;;;2076057;28;20030;-75
2024/01/25 03:59:20;;;;;;;1.70;0.80;;;;;;;;;;2068622;28;20034;-75
2024/01/25 04:00:39;;;;;;;2.08;1.02;;;;;;;;;;2072790;28;20034;-75
2024/01/25 04:01:59;;;;;;;0.60;0.60;;;;;;;;;;2066719;28;20034;-75
2024/01/25 04:03:17;;;;;;;1.90;0.90;;;;;;;;;;2071973;28;20455;-76
2024/01/25 04:04:36;;;;;;;2.35;1.00;;;;;;;;;;2074973;28;20037;-76
2024/01/25 04:05:55;;;;;;;1.23;0.80;;;;;;;;;;2068191;28;20030;-75
2024/01/25 04:07:14;;;;;;;1.10;1.00;;;;;;;;;;2071926;28;20041;-75
2024/01/25 04:08:33;;;;;;;0.95;0.80;;;;;;;;;;2066226;28;20030;-75
2024/01/25 04:09:52;;;;;;;2.97;0.93;;;;;;;;;;2072483;28;20104;-76
2024/01/25 04:11:13;;;;;;;1.77;1.00;;;;;;;;;;2075699;28;20666;-76
2024/01/25 04:12:33;;;;;;;1.02;0.70;;;;;;;;;;2073992;28;20038;-75
2024/01/25 04:13:52;;;;;;;1.63;0.90;;;;;;;;;;2076429;28;20030;-76
2024/01/25 04:15:11;;;;;;;0.63;0.63;;;;;;;;;;2074463;28;20113;-75
2024/01/25 04:16:29;;;;;;;0.80;0.80;;;;;;;;;;2067520;28;20026;-74
2024/01/25 04:17:49;;;;;;;3.38;1.58;;;;;;;;;;2070883;28;20464;-75
2024/01/25 04:19:12;;;;;;;0.80;0.80;;;;;;;;;;2076570;28;20037;-75
2024/01/25 04:20:31;;;;;;;2.63;1.30;;;;;;;;;;2074966;28;20104;-76
2024/01/25 04:21:50;;;;;;;2.15;1.00;;;;;;;;;;2068138;28;20034;-75
2024/01/25 04:23:09;;;;;;;1.55;1.30;;;;;;;;;;2073242;28;20034;-75
2024/01/25 04:24:28;;;;;;;2.78;1.42;;;;;;;;;;2075293;28;20138;-75
2024/01/25 04:25:48;;;;;;;1.67;0.98;;;;;;;;;;2076363;28;20030;-75
2024/01/25 04:27:09;;;;;;;2.58;1.13;;;;;;;;;;2067360;28;20038;-75
2024/01/25 04:28:28;;;;;;;1.20;1.10;;;;;;;;;;2063586;28;20026;-74
2024/01/25 04:29:48;;;;;;;2.47;1.48;;;;;;;;;;2072485;28;20049;-75
2024/01/25 04:31:07;;;;;;;3.42;1.35;;;;;;;;;;2076283;28;20026;-76
2024/01/25 04:32:26;;;;;;;1.35;1.25;;;;;;;;;;2075800;28;20484;-75
2024/01/25 04:33:45;;;;;;;1.95;1.25;;;;;;;;;;2075236;28;20073;-74
2024/01/25 04:35:04;;;;;;;2.03;1.40;;;;;;;;;;2067530;28;20022;-74
2024/01/25 04:36:24;;;;;;;3.13;1.58;;;;;;;;;;2072539;28;20026;-75
2024/01/25 04:37:47;;;;;;;1.92;1.35;;;;;;;;;;2075368;28;20065;-75
2024/01/25 04:39:06;;;;;;;3.38;1.45;;;;;;;;;;2075531;28;20038;-75
2024/01/25 04:40:25;;;;;;;4.13;1.80;;;;;;;;;;2066506;28;20041;-75
2024/01/25 04:41:44;;;;;;;2.35;1.58;;;;;;;;;;2071981;28;20069;-76
2024/01/25 04:43:03;;;;;;;3.40;1.60;;;;;;;;;;2066129;28;20030;-75
2024/01/25 04:44:22;;;;;;;1.55;1.45;;;;;;;;;;2069448;28;20519;-75
2024/01/25 04:45:41;;;;;;;2.92;1.70;;;;;;;;;;2068058;28;20069;-75
2024/01/25 04:47:00;;;;;;;1.50;1.40;;;;;;;;;;2072319;28;20042;-75
2024/01/25 04:48:19;;;;;;;1.92;1.30;;;;;;;;;;2067652;28;20121;-75
2024/01/25 04:49:40;;;;;;;2.85;1.95;;;;;;;;;;2073019;28;20033;-75
2024/01/25 04:50:59;;;;;;;2.47;1.30;;;;;;;;;;2074593;28;20412;-76
2024/01/25 04:52:18;;;;;;;2.58;1.83;;;;;;;;;;2075637;28;20034;-76
2024/01/25 04:53:37;;;;;;;1.30;1.17;;;;;;;;;;2075647;28;20117;-75
2024/01/25 04:54:56;;;;;;;4.55;1.20;;;;;;;;;;2074753;28;20120;-74
2024/01/25 04:56:15;;;;;;;2.03;1.25;;;;;;;;;;2076578;28;20030;-75
2024/01/25 04:57:33;;;;;;;1.40;1.27;;;;;;;;;;2064355;28;20042;-77
2024/01/25 04:58:52;;;;;;;1.42;1.27;;;;;;;;;;2068798;28;20123;-75
2024/01/25 05:00:11;;;;;;;1.83;1.10;;;;;;;;;;2072686;28;20030;-76
2024/01/25 05:01:30;;;;;;;1.60;1.42;;;;;;;;;;2072142;28;20030;-75
2024/01/25 05:02:49;;;;;;;1.65;1.20;;;;;;;;;;2076120;28;20080;-75
2024/01/25 05:04:08;;;;;;;1.48;1.02;;;;;;;;;;2073191;28;20360;-75
2024/01/25 05:05:27;;;;;;;3.47;1.30;;;;;;;;;;2066078;28;20106;-76
2024/01/25 05:06:45;;;;;;;4.38;1.60;;;;;;;;;;2072462;28;20022;-75
2024/01/25 05:08:05;;;;;;;1.50;1.30;;;;;;;;;;2072807;28;20034;-76
2024/01/25 05:09:24;;;;;;;2.25;1.40;;;;;;;;;;2073051;28;20026;-73
2024/01/25 05:10:43;;;;;;;2.55;1.30;;;;;;;;;;2074773;28;20492;-74
2024/01/25 05:12:02;;;;;;;1.83;1.52;;;;;;;;;;2073861;28;21170;-74
2024/01/25 05:13:21;;;;;;;4.40;1.80;;;;;;;;;;2074619;28;20109;-74
2024/01/25 05:14:40;;;;;;;2.85;1.50;;;;;;;;;;2075286;28;20124;-74
2024/01/25 05:15:59;;;;;;;4.80;1.63;;;;;;;;;;2075394;28;20543;-74
2024/01/25 05:17:18;;;;;;;2.55;1.40;;;;;;;;;;2074553;28;20496;-74
2024/01/25 05:18:37;;;;;;;2.60;1.17;;;;;;;;;;2075957;28;20497;-74
2024/01/25 05:19:56;;;;;;;2.35;1.50;;;;;;;;;;2066405;28;20042;-73
2024/01/25 05:21:15;;;;;;;2.72;1.33;;;;;;;;;;2070937;28;20037;-73
2024/01/25 05:22:40;;;;;;;2.90;1.60;;;;;;;;;;2075980;28;20496;-73
2024/01/25 05:23:59;;;;;;;2.40;1.60;;;;;;;;;;2073777;28;20042;-73
2024/01/25 05:25:18;;;;;;;2.30;1.52;;;;;;;;;;2075954;28;20400;-74
2024/01/25 05:26:38;;;;;;;1.98;1.70;;;;;;;;;;2074875;28;20496;-73
2024/01/25 05:27:57;;;;;;;2.50;1.60;;;;;;;;;;2064982;28;20034;-74
2024/01/25 05:29:17;;;;;;;1.60;1.50;;;;;;;;;;2053819;28;20026;-74
2024/01/25 05:30:36;;;;;;;4.70;1.60;;;;;;;;;;2068682;28;20026;-75
2024/01/25 05:31:55;;;;;;;2.83;1.75;;;;;;;;;;2075892;28;20037;-75
2024/01/25 05:33:15;;;;;;;1.95;1.50;;;;;;;;;;2074503;28;20073;-75
2024/01/25 05:34:33;;;;;;;2.80;1.70;;;;;;;;;;2074981;28;20022;-75
2024/01/25 05:35:52;;;;;;;2.90;1.80;;;;;;;;;;2065215;28;20038;-74
2024/01/25 05:37:11;;;;;;;1.63;1.50;;;;;;;;;;2069794;28;20049;-75
2024/01/25 05:38:30;;;;;;;1.55;1.45;;;;;;;;;;2074330;28;20046;-74
2024/01/25 05:39:49;;;;;;;3.33;1.63;;;;;;;;;;2066751;28;20047;-75
2024/01/25 05:41:08;;;;;;;2.08;1.80;;;;;;;;;;2071569;28;20649;-74
2024/01/25 05:42:27;;;;;;;1.60;1.50;;;;;;;;;;2074934;28;20033;-74
2024/01/25 05:43:46;;;;;;;4.68;1.83;;;;;;;;;;2074027;28;20030;-74
2024/01/25 05:45:05;;;;;;;2.80;1.63;;;;;;;;;;2074236;28;20105;-75
2024/01/25 05:46:24;;;;;;;2.13;1.60;;;;;;;;;;2074395;28;20046;-74
2024/01/25 05:47:43;;;;;;;3.75;1.92;;;;;;;;;;2065763;28;20061;-74
2024/01/25 05:49:02;;;;;;;2.53;1.92;;;;;;;;;;2071976;28;20489;-74
2024/01/25 05:50:21;;;;;;;2.55;1.52;;;;;;;;;;2075007;28;20108;-74
2024/01/25 05:51:40;;;;;;;3.63;1.92;;;;;;;;;;2075471;28;20527;-75
2024/01/25 05:52:59;;;;;;;2.50;1.50;;;;;;;;;;2076930;28;20034;-76
2024/01/25 05:54:18;;;;;;;2.00;1.80;;;;;;;;;;2071862;28;20042;-77
2024/01/25 05:55:37;;;;;;;1.63;1.30;;;;;;;;;;2073701;28;20030;-77
2024/01/25 05:56:56;;;;;;;3.50;1.88;;;;;;;;;;2067252;28;20053;-76
2024/01/25 05:58:15;;;;;;;2.38;1.70;;;;;;;;;;2071815;28;20167;-78
2024/01/25 05:59:34;;;;;;;2.08;1.70;;;;;;;;;;2076310;28;20455;-77
2024/01/25 06:00:53;;;;;;;2.60;1.75;;;;;;;;;;2068038;28;20463;-74
2024/01/25 06:02:13;;;;;;;2.95;2.05;;;;;;;;;;2071281;28;20041;-75
2024/01/25 06:03:32;;;;;;;2.70;1.92;;;;;;;;;;2067296;28;20069;-76
2024/01/25 06:04:51;;;;;;;1.85;1.75;;;;;;;;;;2073347;28;20038;-78
2024/01/25 06:06:10;;;;;;;4.13;2.08;;;;;;;;;;2064966;28;20038;-76
2024/01/25 06:07:29;;;;;;;4.72;2.05;;;;;;;;;;2071116;28;20042;-75
2024/01/25 06:08:48;;;;;;;1.92;1.83;;;;;;;;;;2067130;28;20034;-76
2024/01/25 06:10:07;;;;;;;2.67;2.10;;;;;;;;;;2073050;28;20030;-76
2024/01/25 06:11:26;;;;;;;3.17;1.90;;;;;;;;;;2076926;28;20034;-75
2024/01/25 06:12:45;;;;;;;2.58;2.03;;;;;;;;;;2076469;28;20109;-75
2024/01/25 06:14:08;;;;;;;4.03;1.80;;;;;;;;;;2075703;28;20034;-75
2024/01/25 06:15:27;;;;;;;2.03;1.80;;;;;;;;;;2077107;28;20185;-74
2024/01/25 06:16:45;;;;;;;1.77;1.67;;;;;;;;;;2075815;28;20554;-75
2024/01/25 06:18:04;;;;;;;3.75;1.92;;;;;;;;;;2075311;28;20419;-76
2024/01/25 06:19:23;;;;;;;3.33;1.83;;;;;;;;;;2078023;28;20033;-75
2024/01/25 06:20:43;;;;;;;2.17;1.98;;;;;;;;;;2077656;28;20045;-74
2024/01/25 06:22:03;;;;;;;3.63;2.03;;;;;;;;;;2074690;28;20026;-74
2024/01/25 06:23:21;;;;;;;1.60;1.50;;;;;;;;;;2068364;28;20121;-75
2024/01/25 06:24:40;;;;;;;1.60;1.50;;;;;;;;;;2074631;28;20816;-74
2024/01/25 06:26:00;;;;;;;1.80;1.70;;;;;;;;;;2076289;28;20034;-75
2024/01/25 06:27:19;;;;;;;3.33;1.70;;;;;;;;;;2075752;28;20107;-75
2024/01/25 06:28:38;;;;;;;2.28;2.08;;;;;;;;;;2075794;28;20117;-74
2024/01/25 06:29:57;;;;;;;2.03;1.92;;;;;;;;;;2076734;28;20029;-75
2024/01/25 06:31:16;;;;;;;2.72;1.83;;;;;;;;;;2076594;28;20034;-74
2024/01/25 06:32:35;;;;;;;1.27;1.20;;;;;;;;;;2076357;28;20018;-75
2024/01/25 06:33:54;;;;;;;3.67;1.70;;;;;;;;;;2074922;28;20404;-74
2024/01/25 06:35:14;;;;;;;1.90;1.70;;;;;;;;;;2077120;28;20041;-74
2024/01/25 06:36:33;;;;;;;1.88;1.73;;;;;;;;;;2076779;28;20057;-75
2024/01/25 06:37:52;;;;;;;2.35;2.15;;;;;;;;;;2074333;28;20042;-76
2024/01/25 06:39:11;;;;;;;1.67;1.58;;;;;;;;;;2075075;28;20496;-75
2024/01/25 06:40:29;;;;;;;2.15;1.60;;;;;;;;;;2075777;28;20068;-75
2024/01/25 06:41:48;;;;;;;2.55;1.33;;;;;;;;;;2076508;28;20042;-74
2024/01/25 06:43:07;;;;;;;2.53;1.58;;;;;;;;;;2065751;28;20034;-74
2024/01/25 06:44:27;;;;;;;2.10;1.70;;;;;;;;;;2071548;28;20054;-74
2024/01/25 06:45:46;;;;;;;1.70;1.45;;;;;;;;;;2073692;28;20029;-76
2024/01/25 06:47:05;;;;;;;2.20;1.90;;;;;;;;;;2069884;28;20042;-76
2024/01/25 06:48:25;;;;;;;2.10;1.77;;;;;;;;;;2065737;28;20022;-76
2024/01/25 06:49:47;;;;;;;2.42;1.63;;;;;;;;;;2064889;28;20031;-77
2024/01/25 06:51:06;;;;;;;;;;;;;;;;;;2067389;28;20026;-76
2024/01/25 06:52:25;;;;;;;3.58;1.80;;;;;;;;;;2057671;28;20296;-76
2024/01/25 06:53:45;;;;;;;1.65;1.55;;;;;;;;;;2055146;28;20043;-76
2024/01/25 06:55:04;;;;;;;1.67;1.35;;;;;;;;;;2061986;28;20038;-75
2024/01/25 06:56:23;;;;;;;3.28;1.70;;;;;;;;;;2059597;28;20030;-76
2024/01/25 06:57:42;;;;;;;2.22;1.77;;;;;;;;;;2059397;28;20035;-76
2024/01/25 06:59:01;;;;;;;1.52;1.33;;;;;;;;;;2054285;28;20034;-78
2024/01/25 07:00:21;;;;;;;1.52;1.42;;;;;;;;;;2062749;28;20039;-77
2024/01/25 07:01:42;;;;;;;1.60;1.50;;;;;;;;;;2065853;28;20890;-77
2024/01/25 07:03:01;;;;;;;1.55;1.45;;;;;;;;;;2067223;28;20038;-77
2024/01/25 07:04:20;;;;;;;1.58;1.48;;;;;;;;;;2065942;28;20033;-77
2024/01/25 07:05:39;;;;;;;2.58;1.40;;;;;;;;;;2068026;28;20034;-78
2024/01/25 07:06:59;;;;;;;2.60;1.92;;;;;;;;;;2067736;28;20057;-77
2024/01/25 07:08:18;;;;;;;2.42;1.50;;;;;;;;;;2065173;28;20030;-77
2024/01/25 07:09:37;;;;;;;4.82;1.90;;;;;;;;;;2068720;28;20109;-77
2024/01/25 07:10:59;;;;;;;1.25;1.15;;;;;;;;;;2068363;28;20062;-77
2024/01/25 07:12:18;;;;;;;2.33;1.55;;;;;;;;;;2068078;28;20109;-77
2024/01/25 07:13:37;;;;;;;1.40;1.30;;;;;;;;;;2069273;28;20030;-77
2024/01/25 07:14:56;;;;;;;1.30;1.20;;;;;;;;;;2068769;28;20030;-78
2024/01/25 07:16:15;;;;;;;2.55;1.50;;;;;;;;;;2067340;28;20509;-78
2024/01/25 07:17:34;;;;;;;2.20;1.60;;;;;;;;;;2058738;28;20034;-77
2024/01/25 07:18:53;;;;;;;2.15;1.30;;;;;;;;;;2065104;28;20038;-77
2024/01/25 07:20:13;;;;;;;2.83;1.27;;;;;;;;;;2069217;28;20437;-77
2024/01/25 07:21:32;;;;;;;1.30;1.20;;;;;;;;;;2068931;28;20034;-77
2024/01/25 07:22:51;;;;;;;1.77;0.88;;;;;;;;;;2067717;28;20030;-77
2024/01/25 07:24:10;;;;;;;1.17;1.08;;;;;;;;;;2068292;28;20046;-77
2024/01/25 07:25:29;;;;;;;2.33;1.30;;;;;;;;;;2068143;28;20038;-77
2024/01/25 07:26:48;;;;;;;1.00;0.90;;;;;;;;;;2059874;28;20038;-77
2024/01/25 07:28:06;;;;;;;1.10;0.90;;;;;;;;;;2066305;28;20030;-77
2024/01/25 07:29:25;;;;;;;1.10;0.93;;;;;;;;;;2067546;28;20469;-77
2024/01/25 07:30:46;;;;;;;1.27;0.75;;;;;;;;;;2067519;28;20038;-76
2024/01/25 07:32:05;;;;;;;0.93;0.80;;;;;;;;;;2067146;28;20517;-77
2024/01/25 07:33:24;;;;;;;2.17;1.10;;;;;;;;;;2067764;28;20038;-77
2024/01/25 07:34:44;;;;;;;1.70;0.93;;;;;;;;;;2068514;28;20034;-77
2024/01/25 07:36:03;;;;;;;2.42;0.63;;;;;;;;;;2067900;28;20030;-77
2024/01/25 07:37:22;;;;;;;0.60;0.60;;;;;;;;;;2067908;28;20493;-78
2024/01/25 07:38:41;;;;;;;1.52;0.70;;;;;;;;;;2066427;28;20046;-77
2024/01/25 07:40:00;;;;;;;0.93;0.68;;;;;;;;;;2060340;28;20082;-78
2024/01/25 07:41:19;;;;;;;0.77;0.70;;;;;;;;;;2064883;28;20045;-78
2024/01/25 07:42:38;;;;;;;6.38;1.05;;;;;;;;;;2066860;28;20026;-76
2024/01/25 07:43:57;;;;;;;4.40;0.90;;;;;;;;;;2065669;28;20065;-79
2024/01/25 07:45:17;;;;;;;2.88;0.98;;;;;;;;;;2068684;28;20057;-78
2024/01/25 07:46:36;;;;;;;1.48;0.73;;;;;;;;;;2058898;28;20065;-78
2024/01/25 07:47:54;;;;;;;2.25;0.88;;;;;;;;;;2064822;28;20053;-78
2024/01/25 07:49:14;;;;;;;0.88;0.80;;;;;;;;;;2067834;28;20030;-78
2024/01/25 07:50:33;;;;;;;1.70;0.77;;;;;;;;;;2068882;28;20035;-78
2024/01/25 07:51:52;;;;;;;0.60;0.57;;;;;;;;;;2067407;28;20038;-77
2024/01/25 07:53:12;;;;;;;1.02;0.68;;;;;;;;;;2059552;28;20125;-76
2024/01/25 07:54:31;;;;;;;1.02;0.93;;;;;;;;;;2063914;28;20038;-76